sensor_id;sensor_type;location;lat;lon;timestamp;noise_LAeq;noise_LA_min;noise_LA_max;noise_LA01;noise_LA95
46749;Laerm;33775;47.992;11.864;2023-02-28T00:01:02;36.47;28.67;39.70;;
46749;Laerm;33775;47.992;11.864;2023-02-28T00:03:28;36.48;29.92;39.81;;
46749;Laerm;33775;47.992;11.864;2023-02-28T00:05:53;36.49;29.92;39.70;;
46749;Laerm;33775;47.992;11.864;2023-02-28T00:08:18;36.52;30.89;39.70;;
46749;Laerm;33775;47.992;11.864;2023-02-28T00:10:43;36.55;29.92;39.70;;
46749;Laerm;33775;47.992;11.864;2023-02-28T00:13:08;36.52;26.91;39.81;;
46749;Laerm;33775;47.992;11.864;2023-02-28T00:15:34;36.55;29.92;39.70;;
46749;Laerm;33775;47.992;11.864;2023-02-28T00:17:59;36.52;29.92;39.89;;
46749;Laerm;33775;47.992;11.864;2023-02-28T00:20:24;36.53;30.89;39.81;;
46749;Laerm;33775;47.992;11.864;2023-02-28T00:22:51;36.54;30.89;39.58;;
46749;Laerm;33775;47.992;11.864;2023-02-28T00:25:21;36.52;29.92;39.46;;
46749;Laerm;33775;47.992;11.864;2023-02-28T00:27:47;36.54;30.89;39.81;;
46749;Laerm;33775;47.992;11.864;2023-02-28T00:30:19;36.56;29.92;39.58;;
46749;Laerm;33775;47.992;11.864;2023-02-28T00:32:45;36.53;28.67;39.46;;
46749;Laerm;33775;47.992;11.864;2023-02-28T00:35:10;36.56;29.92;39.81;;
46749;Laerm;33775;47.992;11.864;2023-02-28T00:37:36;36.52;28.67;39.58;;
46749;Laerm;33775;47.992;11.864;2023-02-28T00:40:01;36.55;30.89;39.58;;
46749;Laerm;33775;47.992;11.864;2023-02-28T00:42:29;36.54;30.89;39.58;;
46749;Laerm;33775;47.992;11.864;2023-02-28T00:44:54;36.54;28.67;39.68;;
46749;Laerm;33775;47.992;11.864;2023-02-28T00:47:20;36.55;29.92;39.81;;
46749;Laerm;33775;47.992;11.864;2023-02-28T00:49:45;36.51;30.89;39.46;;
46749;Laerm;33775;47.992;11.864;2023-02-28T00:52:10;36.52;28.67;39.81;;
46749;Laerm;33775;47.992;11.864;2023-02-28T00:54:35;36.54;30.89;39.70;;
46749;Laerm;33775;47.992;11.864;2023-02-28T00:57:00;36.52;29.92;39.70;;
46749;Laerm;33775;47.992;11.864;2023-02-28T00:59:25;36.52;28.67;39.58;;
46749;Laerm;33775;47.992;11.864;2023-02-28T01:01:51;36.53;30.89;39.46;;
46749;Laerm;33775;47.992;11.864;2023-02-28T01:04:16;36.53;28.67;39.34;;
46749;Laerm;33775;47.992;11.864;2023-02-28T01:06:41;36.53;29.92;39.46;;
46749;Laerm;33775;47.992;11.864;2023-02-28T01:09:07;36.48;29.92;39.46;;
46749;Laerm;33775;47.992;11.864;2023-02-28T01:11:32;36.48;30.89;39.46;;
46749;Laerm;33775;47.992;11.864;2023-02-28T01:13:58;36.48;30.89;39.21;;
46749;Laerm;33775;47.992;11.864;2023-02-28T01:16:23;36.47;29.92;40.33;;
46749;Laerm;33775;47.992;11.864;2023-02-28T01:18:49;36.46;28.67;39.34;;
46749;Laerm;33775;47.992;11.864;2023-02-28T01:21:15;36.42;28.67;39.34;;
46749;Laerm;33775;47.992;11.864;2023-02-28T01:23:40;36.42;29.92;39.70;;
46749;Laerm;33775;47.992;11.864;2023-02-28T01:26:10;36.46;28.67;39.58;;
46749;Laerm;33775;47.992;11.864;2023-02-28T01:28:35;36.39;30.89;39.34;;
46749;Laerm;33775;47.992;11.864;2023-02-28T01:31:00;36.36;29.92;39.21;;
46749;Laerm;33775;47.992;11.864;2023-02-28T01:33:26;36.40;28.67;39.21;;
46749;Laerm;33775;47.992;11.864;2023-02-28T01:38:26;36.41;28.67;39.58;;
46749;Laerm;33775;47.992;11.864;2023-02-28T01:40:51;36.40;29.92;39.70;;
46749;Laerm;33775;47.992;11.864;2023-02-28T01:43:23;36.40;29.92;39.46;;
46749;Laerm;33775;47.992;11.864;2023-02-28T01:45:49;36.37;29.92;39.34;;
46749;Laerm;33775;47.992;11.864;2023-02-28T01:48:15;36.40;30.89;39.46;;
46749;Laerm;33775;47.992;11.864;2023-02-28T01:50:41;36.39;30.89;39.70;;
46749;Laerm;33775;47.992;11.864;2023-02-28T01:53:09;36.37;29.92;39.46;;
46749;Laerm;33775;47.992;11.864;2023-02-28T01:55:35;36.39;28.67;39.70;;
46749;Laerm;33775;47.992;11.864;2023-02-28T01:58:02;36.36;28.67;39.70;;
46749;Laerm;33775;47.992;11.864;2023-02-28T02:00:29;36.31;26.91;39.46;;
46749;Laerm;33775;47.992;11.864;2023-02-28T02:02:57;36.25;29.92;39.21;;
46749;Laerm;33775;47.992;11.864;2023-02-28T02:05:25;36.23;28.67;39.21;;
46749;Laerm;33775;47.992;11.864;2023-02-28T02:08:12;36.22;26.91;39.46;;
46749;Laerm;33775;47.992;11.864;2023-02-28T02:10:39;36.19;29.92;39.34;;
46749;Laerm;33775;47.992;11.864;2023-02-28T02:13:23;36.17;26.91;39.46;;
46749;Laerm;33775;47.992;11.864;2023-02-28T02:18:30;36.18;29.92;39.46;;
46749;Laerm;33775;47.992;11.864;2023-02-28T02:29:12;36.11;23.90;39.34;;
46749;Laerm;33775;47.992;11.864;2023-02-28T02:31:50;36.13;28.67;39.21;;
46749;Laerm;33775;47.992;11.864;2023-02-28T02:36:52;36.12;28.67;39.21;;
46749;Laerm;33775;47.992;11.864;2023-02-28T02:39:32;36.11;29.92;39.08;;
46749;Laerm;33775;47.992;11.864;2023-02-28T02:42:01;36.08;23.90;39.21;;
46749;Laerm;33775;47.992;11.864;2023-02-28T02:44:49;36.06;23.90;39.34;;
46749;Laerm;33775;47.992;11.864;2023-02-28T02:47:16;36.01;26.91;39.21;;
46749;Laerm;33775;47.992;11.864;2023-02-28T02:49:44;36.00;23.90;39.21;;
46749;Laerm;33775;47.992;11.864;2023-02-28T02:52:12;35.95;28.67;38.95;;
46749;Laerm;33775;47.992;11.864;2023-02-28T02:54:43;35.96;26.91;39.21;;
46749;Laerm;33775;47.992;11.864;2023-02-28T02:57:14;35.94;28.67;39.34;;
46749;Laerm;33775;47.992;11.864;2023-02-28T02:59:43;35.94;28.67;39.08;;
46749;Laerm;33775;47.992;11.864;2023-02-28T03:02:10;35.88;26.91;39.21;;
46749;Laerm;33775;47.992;11.864;2023-02-28T03:04:38;35.91;28.67;39.08;;
46749;Laerm;33775;47.992;11.864;2023-02-28T03:07:05;35.90;28.67;39.08;;
46749;Laerm;33775;47.992;11.864;2023-02-28T03:09:32;35.87;28.67;39.08;;
46749;Laerm;33775;47.992;11.864;2023-02-28T03:11:57;35.88;26.91;39.46;;
46749;Laerm;33775;47.992;11.864;2023-02-28T03:19:25;35.93;26.91;38.95;;
46749;Laerm;33775;47.992;11.864;2023-02-28T03:24:34;35.91;23.90;39.21;;
46749;Laerm;33775;47.992;11.864;2023-02-28T03:27:12;35.90;26.91;40.23;;
46749;Laerm;33775;47.992;11.864;2023-02-28T03:29:43;35.89;28.67;39.58;;
46749;Laerm;33775;47.992;11.864;2023-02-28T03:32:18;35.85;5.00;39.21;;
46749;Laerm;33775;47.992;11.864;2023-02-28T03:34:48;35.87;26.91;39.34;;
46749;Laerm;33775;47.992;11.864;2023-02-28T03:37:16;35.84;5.00;39.34;;
46749;Laerm;33775;47.992;11.864;2023-02-28T03:39:45;35.88;26.91;39.21;;
46749;Laerm;33775;47.992;11.864;2023-02-28T03:42:14;35.90;26.91;39.21;;
46749;Laerm;33775;47.992;11.864;2023-02-28T03:44:41;35.94;5.00;39.35;;
46749;Laerm;33775;47.992;11.864;2023-02-28T03:47:09;35.95;28.67;39.46;;
46749;Laerm;33775;47.992;11.864;2023-02-28T03:49:38;35.92;28.67;39.21;;
46749;Laerm;33775;47.992;11.864;2023-02-28T03:52:08;35.97;23.90;39.08;;
46749;Laerm;33775;47.992;11.864;2023-02-28T03:54:35;35.89;29.92;39.08;;
46749;Laerm;33775;47.992;11.864;2023-02-28T03:57:23;35.92;23.90;39.58;;
46749;Laerm;33775;47.992;11.864;2023-02-28T03:59:47;35.95;23.90;39.08;;
46749;Laerm;33775;47.992;11.864;2023-02-28T04:02:13;35.91;23.90;39.21;;
46749;Laerm;33775;47.992;11.864;2023-02-28T04:04:39;35.95;26.91;38.95;;
46749;Laerm;33775;47.992;11.864;2023-02-28T04:07:13;35.93;26.91;39.08;;
46749;Laerm;33775;47.992;11.864;2023-02-28T04:09:39;35.91;26.91;39.34;;
46749;Laerm;33775;47.992;11.864;2023-02-28T04:12:04;35.93;28.67;39.70;;
46749;Laerm;33775;47.992;11.864;2023-02-28T04:14:29;35.96;26.91;39.34;;
46749;Laerm;33775;47.992;11.864;2023-02-28T04:16:54;35.97;28.67;39.21;;
46749;Laerm;33775;47.992;11.864;2023-02-28T04:19:23;35.93;28.67;39.21;;
46749;Laerm;33775;47.992;11.864;2023-02-28T04:21:49;35.89;23.55;39.34;;
46749;Laerm;33775;47.992;11.864;2023-02-28T04:24:16;35.90;26.91;39.21;;
46749;Laerm;33775;47.992;11.864;2023-02-28T04:26:42;35.86;26.91;38.95;;
46749;Laerm;33775;47.992;11.864;2023-02-28T04:29:08;35.85;23.90;39.21;;
46749;Laerm;33775;47.992;11.864;2023-02-28T04:31:34;35.83;28.67;39.92;;
46749;Laerm;33775;47.992;11.864;2023-02-28T04:34:00;35.84;28.67;39.21;;
46749;Laerm;33775;47.992;11.864;2023-02-28T04:36:25;35.84;26.91;39.34;;
46749;Laerm;33775;47.992;11.864;2023-02-28T04:38:50;35.82;5.00;39.34;;
46749;Laerm;33775;47.992;11.864;2023-02-28T04:41:16;35.84;26.91;39.21;;
46749;Laerm;33775;47.992;11.864;2023-02-28T04:43:41;35.81;26.56;38.95;;
46749;Laerm;33775;47.992;11.864;2023-02-28T04:46:07;35.82;26.91;39.34;;
46749;Laerm;33775;47.992;11.864;2023-02-28T04:48:33;35.84;26.91;39.46;;
46749;Laerm;33775;47.992;11.864;2023-02-28T04:51:08;35.81;28.67;39.58;;
46749;Laerm;33775;47.992;11.864;2023-02-28T04:53:34;35.85;26.91;39.08;;
46749;Laerm;33775;47.992;11.864;2023-02-28T04:55:59;35.87;28.67;39.34;;
46749;Laerm;33775;47.992;11.864;2023-02-28T04:58:25;35.90;26.91;39.92;;
46749;Laerm;33775;47.992;11.864;2023-02-28T05:00:51;35.90;26.91;39.08;;
46749;Laerm;33775;47.992;11.864;2023-02-28T05:03:16;35.92;23.90;39.08;;
46749;Laerm;33775;47.992;11.864;2023-02-28T05:05:42;35.94;23.90;39.08;;
46749;Laerm;33775;47.992;11.864;2023-02-28T05:08:07;35.96;26.91;39.46;;
46749;Laerm;33775;47.992;11.864;2023-02-28T05:10:32;35.96;29.57;39.08;;
46749;Laerm;33775;47.992;11.864;2023-02-28T05:12:57;36.00;26.91;38.95;;
46749;Laerm;33775;47.992;11.864;2023-02-28T05:15:23;36.01;26.56;39.08;;
46749;Laerm;33775;47.992;11.864;2023-02-28T05:17:49;36.08;28.67;39.08;;
46749;Laerm;33775;47.992;11.864;2023-02-28T05:20:14;36.06;28.67;39.08;;
46749;Laerm;33775;47.992;11.864;2023-02-28T05:22:40;36.12;29.92;39.70;;
46749;Laerm;33775;47.992;11.864;2023-02-28T05:25:05;36.08;29.92;39.34;;
46749;Laerm;33775;47.992;11.864;2023-02-28T05:27:31;36.10;28.67;39.21;;
46749;Laerm;33775;47.992;11.864;2023-02-28T05:29:57;36.12;26.91;39.81;;
46749;Laerm;33775;47.992;11.864;2023-02-28T05:32:22;36.14;29.92;39.11;;
46749;Laerm;33775;47.992;11.864;2023-02-28T05:34:47;36.12;28.67;40.33;;
46749;Laerm;33775;47.992;11.864;2023-02-28T05:37:13;36.10;26.91;39.46;;
46749;Laerm;33775;47.992;11.864;2023-02-28T05:39:39;36.11;28.67;39.21;;
46749;Laerm;33775;47.992;11.864;2023-02-28T05:42:05;36.15;29.92;39.34;;
46749;Laerm;33775;47.992;11.864;2023-02-28T05:44:31;36.10;29.92;39.46;;
46749;Laerm;33775;47.992;11.864;2023-02-28T05:46:56;36.10;29.92;38.95;;
46749;Laerm;33775;47.992;11.864;2023-02-28T05:49:21;36.13;28.67;39.58;;
46749;Laerm;33775;47.992;11.864;2023-02-28T05:51:47;36.19;29.92;39.08;;
46749;Laerm;33775;47.992;11.864;2023-02-28T05:54:12;36.20;28.67;39.34;;
46749;Laerm;33775;47.992;11.864;2023-02-28T05:56:38;36.21;28.67;39.58;;
46749;Laerm;33775;47.992;11.864;2023-02-28T05:59:05;36.23;28.67;39.34;;
46749;Laerm;33775;47.992;11.864;2023-02-28T06:03:55;36.24;28.67;39.21;;
46749;Laerm;33775;47.992;11.864;2023-02-28T06:06:20;36.24;26.91;39.08;;
46749;Laerm;33775;47.992;11.864;2023-02-28T06:08:46;36.25;29.92;39.34;;
46749;Laerm;33775;47.992;11.864;2023-02-28T06:11:11;36.28;30.89;39.21;;
46749;Laerm;33775;47.992;11.864;2023-02-28T06:13:36;36.30;30.89;39.58;;
46749;Laerm;33775;47.992;11.864;2023-02-28T06:16:01;36.32;28.32;39.34;;
46749;Laerm;33775;47.992;11.864;2023-02-28T06:18:26;36.33;29.92;39.70;;
46749;Laerm;33775;47.992;11.864;2023-02-28T06:20:52;36.36;28.67;39.34;;
46749;Laerm;33775;47.992;11.864;2023-02-28T06:23:19;36.39;28.67;39.34;;
46749;Laerm;33775;47.992;11.864;2023-02-28T06:25:45;36.41;28.67;39.46;;
46749;Laerm;33775;47.992;11.864;2023-02-28T06:28:10;36.44;29.92;39.81;;
46749;Laerm;33775;47.992;11.864;2023-02-28T06:30:36;36.47;29.92;39.92;;
46749;Laerm;33775;47.992;11.864;2023-02-28T06:33:01;36.48;26.91;39.34;;
46749;Laerm;33775;47.992;11.864;2023-02-28T06:35:26;36.46;29.92;39.70;;
46749;Laerm;33775;47.992;11.864;2023-02-28T06:37:52;36.49;29.92;39.81;;
46749;Laerm;33775;47.992;11.864;2023-02-28T06:40:17;36.52;29.57;39.70;;
46749;Laerm;33775;47.992;11.864;2023-02-28T06:42:42;36.51;28.67;40.13;;
46749;Laerm;33775;47.992;11.864;2023-02-28T06:45:08;36.52;28.67;39.46;;
46749;Laerm;33775;47.992;11.864;2023-02-28T06:47:34;36.53;30.54;39.46;;
46749;Laerm;33775;47.992;11.864;2023-02-28T06:49:59;36.52;28.67;39.58;;
46749;Laerm;33775;47.992;11.864;2023-02-28T06:52:26;36.53;29.92;39.92;;
46749;Laerm;33775;47.992;11.864;2023-02-28T06:54:51;36.54;28.67;39.92;;
46749;Laerm;33775;47.992;11.864;2023-02-28T06:57:24;36.52;30.89;39.35;;
46749;Laerm;33775;47.992;11.864;2023-02-28T06:59:50;36.55;30.89;39.46;;
46749;Laerm;33775;47.992;11.864;2023-02-28T07:02:15;36.57;30.89;40.13;;
46749;Laerm;33775;47.992;11.864;2023-02-28T07:04:40;36.56;29.92;39.70;;
46749;Laerm;33775;47.992;11.864;2023-02-28T07:07:09;36.52;29.92;39.70;;
46749;Laerm;33775;47.992;11.864;2023-02-28T07:09:34;36.54;29.92;39.46;;
46749;Laerm;33775;47.992;11.864;2023-02-28T07:11:59;36.58;26.91;40.43;;
46749;Laerm;33775;47.992;11.864;2023-02-28T07:14:25;36.54;29.92;39.58;;
46749;Laerm;33775;47.992;11.864;2023-02-28T07:16:51;36.53;26.91;39.68;;
46749;Laerm;33775;47.992;11.864;2023-02-28T07:19:16;36.53;30.54;39.92;;
46749;Laerm;33775;47.992;11.864;2023-02-28T07:21:41;36.52;29.92;39.46;;
46749;Laerm;33775;47.992;11.864;2023-02-28T07:24:06;36.56;30.89;39.46;;
46749;Laerm;33775;47.992;11.864;2023-02-28T07:26:31;36.54;29.92;40.03;;
46749;Laerm;33775;47.992;11.864;2023-02-28T07:28:59;36.53;29.92;39.81;;
46749;Laerm;33775;47.992;11.864;2023-02-28T07:31:24;36.49;29.92;39.92;;
46749;Laerm;33775;47.992;11.864;2023-02-28T07:33:50;36.54;28.67;39.81;;
46749;Laerm;33775;47.992;11.864;2023-02-28T07:36:16;36.53;29.92;39.81;;
46749;Laerm;33775;47.992;11.864;2023-02-28T07:38:43;36.51;30.89;39.70;;
46749;Laerm;33775;47.992;11.864;2023-02-28T07:41:09;36.50;29.92;39.92;;
46749;Laerm;33775;47.992;11.864;2023-02-28T07:43:35;36.49;26.91;40.33;;
46749;Laerm;33775;47.992;11.864;2023-02-28T07:46:04;36.49;30.89;40.33;;
46749;Laerm;33775;47.992;11.864;2023-02-28T07:48:30;36.47;30.89;39.58;;
46749;Laerm;33775;47.992;11.864;2023-02-28T07:50:56;36.48;29.92;39.81;;
46749;Laerm;33775;47.992;11.864;2023-02-28T07:53:21;36.46;28.67;39.92;;
46749;Laerm;33775;47.992;11.864;2023-02-28T07:55:47;36.44;28.67;39.58;;
46749;Laerm;33775;47.992;11.864;2023-02-28T07:58:12;36.42;28.67;39.70;;
46749;Laerm;33775;47.992;11.864;2023-02-28T08:00:37;36.44;26.91;39.34;;
46749;Laerm;33775;47.992;11.864;2023-02-28T08:03:03;36.43;28.67;39.46;;
46749;Laerm;33775;47.992;11.864;2023-02-28T08:05:28;36.44;26.91;39.46;;
46749;Laerm;33775;47.992;11.864;2023-02-28T08:07:55;36.42;30.89;39.58;;
46749;Laerm;33775;47.992;11.864;2023-02-28T08:10:20;36.42;28.67;39.34;;
46749;Laerm;33775;47.992;11.864;2023-02-28T08:12:45;36.40;28.67;39.58;;
46749;Laerm;33775;47.992;11.864;2023-02-28T08:15:10;36.44;29.92;39.58;;
46749;Laerm;33775;47.992;11.864;2023-02-28T08:17:35;36.41;28.67;39.92;;
46749;Laerm;33775;47.992;11.864;2023-02-28T08:20:01;36.41;28.67;39.46;;
46749;Laerm;33775;47.992;11.864;2023-02-28T08:22:26;36.44;30.89;39.58;;
46749;Laerm;33775;47.992;11.864;2023-02-28T08:24:51;36.41;30.89;39.70;;
46749;Laerm;33775;47.992;11.864;2023-02-28T08:27:16;36.43;29.92;39.46;;
46749;Laerm;33775;47.992;11.864;2023-02-28T08:29:42;36.40;29.92;39.81;;
46749;Laerm;33775;47.992;11.864;2023-02-28T08:32:07;36.39;28.67;39.58;;
46749;Laerm;33775;47.992;11.864;2023-02-28T08:34:32;36.38;29.92;39.58;;
46749;Laerm;33775;47.992;11.864;2023-02-28T08:36:57;36.40;26.91;39.46;;
46749;Laerm;33775;47.992;11.864;2023-02-28T08:39:23;36.38;29.92;39.58;;
46749;Laerm;33775;47.992;11.864;2023-02-28T08:41:48;36.39;29.92;39.34;;
46749;Laerm;33775;47.992;11.864;2023-02-28T08:44:13;36.37;30.54;39.34;;
46749;Laerm;33775;47.992;11.864;2023-02-28T08:46:38;36.35;29.92;39.34;;
46749;Laerm;33775;47.992;11.864;2023-02-28T08:49:04;36.40;29.92;39.34;;
46749;Laerm;33775;47.992;11.864;2023-02-28T08:51:29;36.38;28.67;39.46;;
46749;Laerm;33775;47.992;11.864;2023-02-28T08:53:55;36.37;28.67;39.70;;
46749;Laerm;33775;47.992;11.864;2023-02-28T08:56:21;36.40;28.67;39.58;;
46749;Laerm;33775;47.992;11.864;2023-02-28T08:58:47;36.35;30.89;39.70;;
46749;Laerm;33775;47.992;11.864;2023-02-28T09:01:14;36.37;29.92;39.46;;
46749;Laerm;33775;47.992;11.864;2023-02-28T09:03:40;36.39;28.67;39.81;;
46749;Laerm;33775;47.992;11.864;2023-02-28T09:06:06;36.36;30.54;39.46;;
46749;Laerm;33775;47.992;11.864;2023-02-28T09:08:32;36.39;29.92;39.46;;
46749;Laerm;33775;47.992;11.864;2023-02-28T09:10:57;36.40;28.67;39.81;;
46749;Laerm;33775;47.992;11.864;2023-02-28T09:13:23;36.39;28.67;39.81;;
46749;Laerm;33775;47.992;11.864;2023-02-28T09:15:49;36.37;29.92;39.46;;
46749;Laerm;33775;47.992;11.864;2023-02-28T09:18:14;36.34;28.67;39.92;;
46749;Laerm;33775;47.992;11.864;2023-02-28T09:20:40;36.37;26.91;39.70;;
46749;Laerm;33775;47.992;11.864;2023-02-28T09:23:06;36.37;26.91;39.58;;
46749;Laerm;33775;47.992;11.864;2023-02-28T09:25:31;36.38;28.67;39.46;;
46749;Laerm;33775;47.992;11.864;2023-02-28T09:27:57;36.35;29.92;39.34;;
46749;Laerm;33775;47.992;11.864;2023-02-28T09:30:22;36.36;28.67;39.34;;
46749;Laerm;33775;47.992;11.864;2023-02-28T09:32:47;36.37;30.89;39.34;;
46749;Laerm;33775;47.992;11.864;2023-02-28T09:35:17;36.37;28.67;39.34;;
46749;Laerm;33775;47.992;11.864;2023-02-28T09:37:42;36.38;29.92;39.81;;
46749;Laerm;33775;47.992;11.864;2023-02-28T09:40:08;36.39;29.92;39.70;;
46749;Laerm;33775;47.992;11.864;2023-02-28T09:42:34;36.35;28.67;39.34;;
46749;Laerm;33775;47.992;11.864;2023-02-28T09:45:05;36.37;29.92;39.58;;
46749;Laerm;33775;47.992;11.864;2023-02-28T09:47:36;36.39;28.67;39.46;;
46749;Laerm;33775;47.992;11.864;2023-02-28T09:50:07;36.38;29.57;39.70;;
46749;Laerm;33775;47.992;11.864;2023-02-28T09:52:36;36.38;26.91;39.58;;
46749;Laerm;33775;47.992;11.864;2023-02-28T09:55:15;36.39;29.92;39.58;;
46749;Laerm;33775;47.992;11.864;2023-02-28T09:57:43;36.43;28.67;39.92;;
46749;Laerm;33775;47.992;11.864;2023-02-28T10:05:16;36.44;30.89;39.21;;
46749;Laerm;33775;47.992;11.864;2023-02-28T10:12:52;36.40;28.67;39.58;;
46749;Laerm;33775;47.992;11.864;2023-02-28T10:15:18;36.39;29.92;39.92;;
46749;Laerm;33775;47.992;11.864;2023-02-28T10:17:47;36.42;26.91;39.34;;
46749;Laerm;33775;47.992;11.864;2023-02-28T10:20:15;36.41;29.92;39.21;;
46749;Laerm;33775;47.992;11.864;2023-02-28T10:25:33;36.39;26.91;39.46;;
46749;Laerm;33775;47.992;11.864;2023-02-28T10:28:00;36.39;30.89;39.46;;
46749;Laerm;33775;47.992;11.864;2023-02-28T10:30:26;36.42;30.89;39.58;;
46749;Laerm;33775;47.992;11.864;2023-02-28T10:32:52;36.41;29.57;39.34;;
46749;Laerm;33775;47.992;11.864;2023-02-28T10:35:26;36.42;29.92;39.34;;
46749;Laerm;33775;47.992;11.864;2023-02-28T10:37:55;36.42;28.32;39.46;;
46749;Laerm;33775;47.992;11.864;2023-02-28T10:45:20;36.46;28.67;39.46;;
46749;Laerm;33775;47.992;11.864;2023-02-28T10:50:27;36.44;30.89;39.21;;
46749;Laerm;33775;47.992;11.864;2023-02-28T10:52:53;36.46;29.92;39.57;;
46749;Laerm;33775;47.992;11.864;2023-02-28T10:55:25;36.47;30.54;39.58;;
46749;Laerm;33775;47.992;11.864;2023-02-28T10:57:50;36.46;29.92;39.70;;
46749;Laerm;33775;47.992;11.864;2023-02-28T11:00:17;36.46;30.89;39.70;;
46749;Laerm;33775;47.992;11.864;2023-02-28T11:02:44;36.45;29.92;39.70;;
46749;Laerm;33775;47.992;11.864;2023-02-28T11:05:24;36.46;30.89;39.34;;
46749;Laerm;33775;47.992;11.864;2023-02-28T11:07:53;36.50;30.89;39.46;;
46749;Laerm;33775;47.992;11.864;2023-02-28T11:10:19;36.46;28.67;39.58;;
46749;Laerm;33775;47.992;11.864;2023-02-28T11:12:46;36.49;29.92;39.34;;
46749;Laerm;33775;47.992;11.864;2023-02-28T11:15:20;36.48;28.67;40.03;;
46749;Laerm;33775;47.992;11.864;2023-02-28T11:20:37;36.47;29.92;39.35;;
46749;Laerm;33775;47.992;11.864;2023-02-28T11:23:03;36.48;30.89;39.70;;
46749;Laerm;33775;47.992;11.864;2023-02-28T11:25:33;36.53;30.54;39.58;;
46749;Laerm;33775;47.992;11.864;2023-02-28T11:28:00;36.51;30.89;39.58;;
46749;Laerm;33775;47.992;11.864;2023-02-28T11:32:51;36.49;28.67;39.58;;
46749;Laerm;33775;47.992;11.864;2023-02-28T11:35:17;36.53;29.92;39.34;;
46749;Laerm;33775;47.992;11.864;2023-02-28T11:37:47;36.60;30.89;39.81;;
46749;Laerm;33775;47.992;11.864;2023-02-28T11:40:14;36.61;31.68;39.81;;
46749;Laerm;33775;47.992;11.864;2023-02-28T11:45:35;36.71;28.67;39.70;;
46749;Laerm;33775;47.992;11.864;2023-02-28T11:48:09;36.75;31.68;39.70;;
46749;Laerm;33775;47.992;11.864;2023-02-28T11:50:45;36.82;32.35;39.70;;
46749;Laerm;33775;47.992;11.864;2023-02-28T11:53:21;36.92;31.68;40.13;;
46749;Laerm;33775;47.992;11.864;2023-02-28T12:03:27;37.07;31.68;40.23;;
46749;Laerm;33775;47.992;11.864;2023-02-28T12:08:25;37.04;31.68;39.81;;
46749;Laerm;33775;47.992;11.864;2023-02-28T12:10:59;36.99;32.35;39.58;;
46749;Laerm;33775;47.992;11.864;2023-02-28T12:18:29;36.94;32.00;39.70;;
46749;Laerm;33775;47.992;11.864;2023-02-28T12:21:02;36.92;30.89;39.92;;
46749;Laerm;33775;47.992;11.864;2023-02-28T12:26:08;36.96;31.68;40.80;;
46749;Laerm;33775;47.992;11.864;2023-02-28T12:28:38;36.94;31.68;39.81;;
46749;Laerm;33775;47.992;11.864;2023-02-28T12:31:10;36.96;31.68;39.58;;
46749;Laerm;33775;47.992;11.864;2023-02-28T12:33:38;36.93;32.35;39.92;;
46749;Laerm;33775;47.992;11.864;2023-02-28T12:36:07;36.92;31.33;40.33;;
46749;Laerm;33775;47.992;11.864;2023-02-28T12:38:36;36.93;31.68;39.70;;
46749;Laerm;33775;47.992;11.864;2023-02-28T12:41:23;36.90;32.35;39.58;;
46749;Laerm;33775;47.992;11.864;2023-02-28T12:43:56;36.88;31.33;39.70;;
46749;Laerm;33775;47.992;11.864;2023-02-28T12:46:24;36.85;30.89;39.58;;
46749;Laerm;33775;47.992;11.864;2023-02-28T12:48:55;36.84;30.89;39.58;;
46749;Laerm;33775;47.992;11.864;2023-02-28T12:51:21;36.88;31.68;39.46;;
46749;Laerm;33775;47.992;11.864;2023-02-28T12:54:09;36.86;30.89;39.70;;
46749;Laerm;33775;47.992;11.864;2023-02-28T12:57:19;36.83;31.68;39.92;;
46749;Laerm;33775;47.992;11.864;2023-02-28T13:09:44;36.82;30.89;39.89;;
46749;Laerm;33775;47.992;11.864;2023-02-28T13:12:16;36.81;31.68;39.70;;
46749;Laerm;33775;47.992;11.864;2023-02-28T13:14:41;36.78;30.89;39.70;;
46749;Laerm;33775;47.992;11.864;2023-02-28T13:19:34;36.81;31.68;39.92;;
46749;Laerm;33775;47.992;11.864;2023-02-28T13:22:00;36.80;29.92;39.70;;
46749;Laerm;33775;47.992;11.864;2023-02-28T13:24:46;36.78;29.92;39.58;;
46749;Laerm;33775;47.992;11.864;2023-02-28T13:29:40;36.80;31.68;39.58;;
46749;Laerm;33775;47.992;11.864;2023-02-28T13:34:36;36.74;29.92;39.81;;
46749;Laerm;33775;47.992;11.864;2023-02-28T13:49:54;36.78;29.92;39.70;;
46749;Laerm;33775;47.992;11.864;2023-02-28T13:52:20;36.78;32.35;39.46;;
46749;Laerm;33775;47.992;11.864;2023-02-28T13:57:42;36.82;31.68;39.81;;
46749;Laerm;33775;47.992;11.864;2023-02-28T14:05:35;36.82;31.68;39.70;;
46749;Laerm;33775;47.992;11.864;2023-02-28T14:08:34;36.83;31.68;39.81;;
46749;Laerm;33775;47.992;11.864;2023-02-28T14:11:02;36.82;30.89;39.81;;
46749;Laerm;33775;47.992;11.864;2023-02-28T14:16:05;36.83;31.68;39.58;;
46749;Laerm;33775;47.992;11.864;2023-02-28T14:21:04;36.84;31.68;39.58;;
46749;Laerm;33775;47.992;11.864;2023-02-28T14:26:18;36.88;31.68;40.03;;
46749;Laerm;33775;47.992;11.864;2023-02-28T14:31:13;36.89;31.68;39.46;;
46749;Laerm;33775;47.992;11.864;2023-02-28T14:33:57;36.92;30.89;40.13;;
46749;Laerm;33775;47.992;11.864;2023-02-28T14:36:26;36.90;32.35;40.23;;
46749;Laerm;33775;47.992;11.864;2023-02-28T14:38:55;36.98;32.35;39.58;;
46749;Laerm;33775;47.992;11.864;2023-02-28T14:41:22;37.00;32.35;40.13;;
46749;Laerm;33775;47.992;11.864;2023-02-28T14:43:51;37.00;32.35;39.81;;
46749;Laerm;33775;47.992;11.864;2023-02-28T14:46:17;37.05;32.93;40.23;;
46749;Laerm;33775;47.992;11.864;2023-02-28T14:48:44;37.05;30.89;39.92;;
46749;Laerm;33775;47.992;11.864;2023-02-28T14:51:10;37.02;31.68;39.81;;
46749;Laerm;33775;47.992;11.864;2023-02-28T14:53:36;37.05;32.35;39.92;;
46749;Laerm;33775;47.992;11.864;2023-02-28T14:56:02;37.06;32.93;40.03;;
46749;Laerm;33775;47.992;11.864;2023-02-28T14:58:31;37.09;32.35;40.03;;
46749;Laerm;33775;47.992;11.864;2023-02-28T15:00:58;37.07;32.35;39.70;;
46749;Laerm;33775;47.992;11.864;2023-02-28T15:05:56;37.06;32.35;39.81;;
46749;Laerm;33775;47.992;11.864;2023-02-28T15:08:22;37.05;30.89;39.70;;
46749;Laerm;33775;47.992;11.864;2023-02-28T15:10:51;37.05;32.35;39.81;;
46749;Laerm;33775;47.992;11.864;2023-02-28T15:13:18;37.05;32.35;39.81;;
46749;Laerm;33775;47.992;11.864;2023-02-28T15:16:00;37.02;30.89;39.92;;
46749;Laerm;33775;47.992;11.864;2023-02-28T15:20:55;37.01;32.35;39.92;;
46749;Laerm;33775;47.992;11.864;2023-02-28T15:23:21;37.03;32.35;39.68;;
46749;Laerm;33775;47.992;11.864;2023-02-28T15:25:47;37.03;32.35;39.92;;
46749;Laerm;33775;47.992;11.864;2023-02-28T15:28:16;36.99;32.35;39.70;;
46749;Laerm;33775;47.992;11.864;2023-02-28T15:30:50;37.01;32.35;39.70;;
46749;Laerm;33775;47.992;11.864;2023-02-28T15:33:25;37.00;31.68;40.03;;
46749;Laerm;33775;47.992;11.864;2023-02-28T15:35:51;36.95;31.68;40.03;;
46749;Laerm;33775;47.992;11.864;2023-02-28T15:38:27;36.96;32.93;40.23;;
46749;Laerm;33775;47.992;11.864;2023-02-28T15:40:54;36.95;29.92;40.13;;